Time;durP1;ratioP1;P1;durP2;ratioP2;P2;SDS_P1;SDS_P2;PMS_P1;PMS_P2;Temp;Humidity;BMP_temperature;BMP_pressure;BME280_temperature;BME280_humidity;BME280_pressure;Samples;Min_cycle;Max_cycle;Signal;HPM_P1;HPM_P2
2021/10/26 00:02:08;;;;;;;32.58;20.60;;;;;;;-142.75;100.00;77361.69;5030386;28;20104;-67
2021/10/26 00:04:34;;;;;;;32.17;19.58;;;;;;;-142.75;100.00;77371.53;5029980;28;20060;-68
2021/10/26 00:07:00;;;;;;;35.45;20.95;;;;;;;-142.75;100.00;77365.63;5029179;28;20052;-68
2021/10/26 00:09:26;;;;;;;38.45;20.02;;;;;;;-142.75;100.00;77385.31;5030258;28;20040;-67
2021/10/26 00:11:51;;;;;;;29.92;20.65;;;;;;;-142.75;100.00;77379.41;5030456;28;20096;-68
2021/10/26 00:14:17;;;;;;;35.80;20.33;;;;;;;-142.75;100.00;77393.19;5030184;28;20052;-67
2021/10/26 00:16:42;;;;;;;37.05;19.33;;;;;;;-142.75;100.00;77391.22;5030273;28;20056;-68
2021/10/26 00:19:08;;;;;;;32.28;19.35;;;;;;;-142.75;100.00;77397.13;5030304;28;20568;-67
2021/10/26 00:21:34;;;;;;;32.47;20.65;;;;;;;-142.75;100.00;77397.13;5029374;28;20021;-68
2021/10/26 00:23:59;;;;;;;;;;;;;;;-142.75;100.00;77391.22;5034193;28;20100;-67
2021/10/26 00:26:24;;;;;;;31.50;19.15;;;;;;;-142.75;100.00;77399.09;5033971;28;19999;-68
2021/10/26 00:28:51;;;;;;;33.25;19.63;;;;;;;-142.75;100.00;77391.22;5033887;28;20021;-67
2021/10/26 00:31:16;;;;;;;35.83;19.58;;;;;;;-142.75;100.00;77387.28;5033628;28;20028;-67
2021/10/26 00:33:41;;;;;;;34.80;18.92;;;;;;;-142.75;100.00;77389.25;5032381;28;20025;-66
2021/10/26 00:36:07;;;;;;;35.33;19.35;;;;;;;-142.75;100.00;77393.19;5033461;28;20065;-67
2021/10/26 00:38:32;;;;;;;36.03;18.58;;;;;;;-142.75;100.00;77401.06;5012692;28;20021;-67
2021/10/26 00:40:59;;;;;;;33.50;17.85;;;;;;;-142.75;100.00;77393.19;5013977;28;20498;-67
2021/10/26 00:43:24;;;;;;;32.50;19.30;;;;;;;-142.75;100.00;77405.00;5013960;28;20116;-67
2021/10/26 00:45:50;;;;;;;34.75;18.67;;;;;;;-142.75;100.00;77408.94;5017577;28;20433;-67
2021/10/26 00:48:15;;;;;;;33.13;18.00;;;;;;;-142.75;100.00;77414.84;5032133;28;20478;-67
2021/10/26 00:50:40;;;;;;;34.40;18.80;;;;;;;-142.75;100.00;77401.06;5033337;28;20018;-68
2021/10/26 00:53:06;;;;;;;29.95;18.42;;;;;;;-142.75;100.00;77406.97;5033420;28;20156;-68
2021/10/26 00:55:31;;;;;;;30.95;17.73;;;;;;;-142.75;100.00;77406.97;5033109;28;20075;-68
2021/10/26 00:57:58;;;;;;;30.83;17.65;;;;;;;-142.75;100.00;77401.06;5032106;28;20018;-68
2021/10/26 01:00:24;;;;;;;32.67;17.98;;;;;;;-142.75;100.00;77406.97;5033323;28;20025;-67
2021/10/26 01:02:49;;;;;;;29.58;17.88;;;;;;;-142.75;100.00;77408.94;5033130;28;20029;-67
2021/10/26 01:05:15;;;;;;;25.98;17.25;;;;;;;-142.75;100.00;77405.00;5031695;28;20434;-67
2021/10/26 01:07:41;;;;;;;25.38;16.17;;;;;;;-142.75;100.00;77414.84;5033068;28;20116;-68
2021/10/26 01:10:08;;;;;;;32.95;17.83;;;;;;;-142.75;100.00;77408.94;5031855;28;20024;-67
2021/10/26 01:12:35;;;;;;;31.70;16.10;;;;;;;-142.75;100.00;77428.63;5031764;28;20017;-67
2021/10/26 01:15:00;;;;;;;28.15;15.05;;;;;;;-142.75;100.00;77444.38;5032715;28;20544;-67
2021/10/26 01:17:25;;;;;;;23.17;15.15;;;;;;;-142.75;100.00;77436.50;5031942;28;20104;-67
2021/10/26 01:19:52;;;;;;;20.70;13.95;;;;;;;-142.75;100.00;77424.69;5032841;28;20048;-68
2021/10/26 01:22:20;;;;;;;26.70;14.13;;;;;;;-142.75;100.00;77424.69;5032809;28;20359;-67
2021/10/26 01:24:46;;;;;;;22.42;13.15;;;;;;;-142.75;100.00;77428.63;5031386;28;20021;-67
2021/10/26 01:27:11;;;;;;;;;;;;;;;-142.75;100.00;77432.56;5033266;28;20498;-67
2021/10/26 01:29:37;;;;;;;23.90;13.38;;;;;;;-142.75;100.00;77438.47;5032863;28;19913;-67
2021/10/26 01:32:05;;;;;;;26.40;12.93;;;;;;;-142.75;100.00;77436.50;5031216;28;20024;-68
2021/10/26 01:34:31;;;;;;;22.55;13.15;;;;;;;-142.75;100.00;77436.50;5017067;28;20402;-68
2021/10/26 01:37:00;;;;;;;25.40;13.48;;;;;;;-142.75;100.00;77440.44;5012824;28;20032;-68
2021/10/26 01:39:30;;;;;;;25.48;13.30;;;;;;;-142.75;100.00;77446.34;5011538;28;20020;-68
2021/10/26 01:41:56;;;;;;;21.88;13.32;;;;;;;-142.75;100.00;77446.34;5012840;28;20057;-68
2021/10/26 01:44:22;;;;;;;25.95;14.00;;;;;;;-142.75;100.00;77444.38;5012544;28;20104;-67
2021/10/26 01:46:47;;;;;;;27.45;14.98;;;;;;;-142.75;100.00;77452.25;5012639;28;20332;-67
2021/10/26 01:49:13;;;;;;;21.25;14.00;;;;;;;-142.75;100.00;77444.38;5012675;28;20108;-68
2021/10/26 01:51:38;;;;;;;25.98;16.08;;;;;;;-142.75;100.00;77456.22;5012661;28;20036;-68
2021/10/26 01:54:03;;;;;;;26.40;15.70;;;;;;;-142.75;100.00;77458.16;5012301;28;20033;-67
2021/10/26 01:56:29;;;;;;;29.48;16.63;;;;;;;-142.75;100.00;77464.09;5011324;28;20545;-68
2021/10/26 01:58:55;;;;;;;30.75;18.42;;;;;;;-142.75;100.00;77491.66;5012478;28;20101;-68
2021/10/26 02:01:20;;;;;;;31.90;19.65;;;;;;;-142.75;100.00;77473.94;5012283;28;20014;-67
2021/10/26 02:03:46;;;;;;;27.45;18.70;;;;;;;-142.75;100.00;77477.88;5010941;28;20068;-67
2021/10/26 02:06:11;;;;;;;30.70;17.73;;;;;;;-142.75;100.00;77483.78;5012349;28;20049;-67
2021/10/26 02:08:36;;;;;;;25.63;17.92;;;;;;;-142.75;100.00;77491.66;5012330;28;20038;-68
2021/10/26 02:11:02;;;;;;;28.48;18.35;;;;;;;-142.75;100.00;77489.69;5012236;28;20021;-68
2021/10/26 02:13:27;;;;;;;31.75;19.20;;;;;;;-142.75;100.00;77485.75;5012259;28;20633;-68
2021/10/26 02:15:52;;;;;;;31.30;18.37;;;;;;;-142.75;100.00;77485.75;5011768;28;20105;-67
2021/10/26 02:18:17;;;;;;;33.42;19.08;;;;;;;-142.75;100.00;77495.59;5011193;28;20731;-67
2021/10/26 02:20:43;;;;;;;33.22;19.60;;;;;;;-142.75;100.00;77497.56;5011951;28;20014;-68
2021/10/26 02:23:08;;;;;;;27.48;18.77;;;;;;;-142.75;100.00;77497.56;5012131;28;20017;-67
2021/10/26 02:25:33;;;;;;;34.25;18.95;;;;;;;-142.75;100.00;77499.53;5011835;28;20117;-67
2021/10/26 02:27:59;;;;;;;30.20;18.45;;;;;;;-142.75;100.00;77507.41;5010621;28;20088;-67
2021/10/26 02:30:24;;;;;;;36.97;19.27;;;;;;;-142.75;100.00;77511.34;5011741;28;20021;-68
2021/10/26 02:32:50;;;;;;;32.03;17.35;;;;;;;-142.75;100.00;77511.34;5011783;28;20076;-67
2021/10/26 02:35:16;;;;;;;39.13;17.77;;;;;;;-142.75;100.00;77519.22;5010278;28;20056;-67
2021/10/26 02:37:41;;;;;;;;;;;;;;;-142.75;100.00;77523.16;5012210;28;20788;-67
2021/10/26 02:40:07;;;;;;;30.77;17.25;;;;;;;-142.75;100.00;77519.22;5011760;28;19909;-67
2021/10/26 02:42:33;;;;;;;;;;;;;;;-142.75;100.00;77519.22;5010847;28;20025;-67
2021/10/26 02:44:58;;;;;;;31.27;16.23;;;;;;;-142.75;100.00;77519.22;5010776;28;20274;-68
2021/10/26 02:47:24;;;;;;;31.85;17.25;;;;;;;-142.75;100.00;77529.06;5010188;28;20068;-68
2021/10/26 02:49:49;;;;;;;28.45;16.80;;;;;;;-142.75;100.00;77531.03;5011583;28;20030;-67
2021/10/26 02:52:14;;;;;;;34.75;17.27;;;;;;;-142.75;100.00;77542.84;5011589;28;20022;-67
2021/10/26 02:54:40;;;;;;;33.37;16.70;;;;;;;-142.75;100.00;77538.91;5009974;28;20052;-67
2021/10/26 02:57:05;;;;;;;29.95;16.65;;;;;;;-142.75;100.00;77542.84;5011537;28;20280;-68
2021/10/26 02:59:31;;;;;;;28.63;16.77;;;;;;;-142.75;100.00;77546.78;5011417;28;20018;-68
2021/10/26 03:01:56;;;;;;;33.42;17.23;;;;;;;-142.75;100.00;77544.81;5010112;28;20017;-67
2021/10/26 03:04:21;;;;;;;31.40;17.60;;;;;;;-142.75;100.00;77554.66;5011016;28;20022;-67
2021/10/26 03:06:46;;;;;;;31.27;15.45;;;;;;;-142.75;100.00;77548.75;5011412;28;20017;-67
2021/10/26 03:09:12;;;;;;;31.92;15.52;;;;;;;-142.75;100.00;77556.63;5011252;28;21484;-67
2021/10/26 03:11:38;;;;;;;30.02;16.13;;;;;;;-142.75;100.00;77542.84;5011210;28;20022;-67
2021/10/26 03:14:05;;;;;;;30.02;16.00;;;;;;;-142.75;100.00;77542.84;5010936;28;20022;-67
2021/10/26 03:16:30;;;;;;;;;;;;;;;-142.75;100.00;77536.94;5011596;28;20028;-67
2021/10/26 03:18:55;;;;;;;30.77;15.40;;;;;;;-142.75;100.00;77546.78;5011215;28;19909;-67
2021/10/26 03:21:20;;;;;;;32.80;16.88;;;;;;;-142.75;100.00;77550.72;5009607;28;20494;-67
2021/10/26 03:23:46;;;;;;;27.27;16.23;;;;;;;-142.75;100.00;77552.69;5010989;28;20045;-67
2021/10/26 03:26:11;;;;;;;34.35;17.38;;;;;;;-142.75;100.00;77562.53;5011011;28;20041;-67
2021/10/26 03:28:36;;;;;;;33.25;17.33;;;;;;;-142.75;100.00;77566.47;5011052;28;20057;-67
2021/10/26 03:31:04;;;;;;;35.38;17.33;;;;;;;-142.75;100.00;77570.41;5014890;28;20036;-67
2021/10/26 03:33:30;;;;;;;36.78;18.42;;;;;;;-142.75;100.00;77582.22;5030747;28;20032;-67
2021/10/26 03:35:55;;;;;;;30.33;16.50;;;;;;;-142.75;100.00;77574.34;5029103;28;20120;-68
2021/10/26 03:38:21;;;;;;;39.42;19.10;;;;;;;-142.75;100.00;77576.31;5029469;28;20100;-67
2021/10/26 03:40:46;;;;;;;38.35;18.55;;;;;;;-142.75;100.00;77574.34;5029334;28;20041;-67
2021/10/26 03:43:11;;;;;;;35.30;17.50;;;;;;;-142.75;100.00;77582.22;5030739;28;20035;-67
2021/10/26 03:45:37;;;;;;;41.28;18.25;;;;;;;-142.75;100.00;77586.16;5030434;28;20274;-67
2021/10/26 03:48:03;;;;;;;36.78;17.70;;;;;;;-142.75;100.00;77586.16;5030560;28;20479;-68
2021/10/26 03:50:28;;;;;;;38.88;16.63;;;;;;;-142.75;100.00;77592.06;5029201;28;20407;-68
2021/10/26 03:52:53;;;;;;;40.20;17.10;;;;;;;-142.75;100.00;77613.72;5029215;28;20068;-68
2021/10/26 03:55:20;;;;;;;33.57;16.80;;;;;;;-142.75;100.00;77611.75;5030293;28;20013;-67
2021/10/26 03:57:46;;;;;;;33.70;16.52;;;;;;;-142.75;100.00;77605.84;5033084;28;20268;-67
2021/10/26 04:00:11;;;;;;;39.22;16.95;;;;;;;-142.75;100.00;77594.03;5034418;28;20418;-70
2021/10/26 04:02:40;;;;;;;38.17;16.92;;;;;;;-142.75;100.00;77609.78;5034400;28;20113;-70
2021/10/26 04:05:23;;;;;;;38.85;18.13;;;;;;;-142.75;100.00;77609.78;5034116;28;20020;-68
2021/10/26 04:07:58;;;;;;;36.92;18.05;;;;;;;-142.75;100.00;77619.63;5032989;28;20083;-67
2021/10/26 04:10:33;;;;;;;33.33;17.80;;;;;;;-142.75;100.00;77609.78;5034241;28;20096;-67
2021/10/26 04:13:02;;;;;;;38.85;17.23;;;;;;;-142.75;100.00;77607.81;5034360;28;20017;-67
2021/10/26 04:15:29;;;;;;;40.75;17.60;;;;;;;-142.75;100.00;77619.63;5033865;28;20096;-67
2021/10/26 04:17:54;;;;;;;29.48;16.13;;;;;;;-142.75;100.00;77609.78;5034016;28;20017;-67
2021/10/26 04:20:19;;;;;;;27.63;15.27;;;;;;;-142.75;100.00;77613.72;5032775;28;20498;-67
2021/10/26 04:22:45;;;;;;;28.42;15.27;;;;;;;-142.75;100.00;77619.63;5034091;28;20107;-67
2021/10/26 04:25:10;;;;;;;31.23;15.45;;;;;;;-142.75;100.00;77625.53;5033658;28;20044;-67
2021/10/26 04:27:35;;;;;;;26.40;14.45;;;;;;;-142.75;100.00;77629.47;5034069;28;20483;-67
2021/10/26 04:30:01;;;;;;;27.63;13.05;;;;;;;-142.75;100.00;77633.41;5033603;28;20170;-67
2021/10/26 04:32:26;;;;;;;26.50;13.37;;;;;;;-142.75;100.00;77629.47;5017508;22;20034;-67
2021/10/26 04:34:51;;;;;;;25.95;13.05;;;;;;;-142.75;100.00;77637.34;4992455;28;20282;-67
2021/10/26 04:37:17;;;;;;;24.50;12.50;;;;;;;-142.75;100.00;77641.28;4994575;28;20096;-66
2021/10/26 04:39:42;;;;;;;27.83;12.25;;;;;;;-142.75;100.00;77635.38;5009575;28;20543;-67
2021/10/26 04:42:09;;;;;;;21.27;12.05;;;;;;;-142.75;100.00;77639.31;4994363;28;20084;-66
2021/10/26 04:44:36;;;;;;;28.00;13.00;;;;;;;-142.75;100.00;77637.34;4994070;28;20080;-67
2021/10/26 04:47:02;;;;;;;27.40;12.77;;;;;;;-142.75;100.00;77647.19;4993940;28;20570;-67
2021/10/26 04:49:27;;;;;;;31.58;12.63;;;;;;;-142.75;100.00;77653.09;4994129;28;20101;-67
2021/10/26 04:51:52;;;;;;;27.95;11.60;;;;;;;-142.75;100.00;77666.88;4994131;28;20022;-67
2021/10/26 04:54:17;;;;;;;25.40;11.80;;;;;;;-142.75;100.00;77668.84;5008890;28;20029;-67
2021/10/26 04:56:43;;;;;;;19.88;10.77;;;;;;;-142.75;100.00;77660.97;4993596;28;20429;-67
2021/10/26 04:59:08;;;;;;;21.50;11.57;;;;;;;-142.75;100.00;77660.97;4994209;28;20026;-67
2021/10/26 05:01:33;;;;;;;33.03;12.27;;;;;;;-142.75;100.00;77678.69;4993933;28;20048;-67
2021/10/26 05:03:59;;;;;;;24.05;11.48;;;;;;;-142.75;100.00;77680.66;4993713;28;20038;-67
2021/10/26 05:06:24;;;;;;;30.45;11.63;;;;;;;-142.75;100.00;77684.59;4993858;28;20033;-67
2021/10/26 05:08:52;;;;;;;26.50;11.82;;;;;;;-142.75;100.00;77694.44;4992881;28;20019;-66
2021/10/26 05:11:23;;;;;;;25.02;10.75;;;;;;;-142.75;100.00;77692.47;4993812;28;20072;-67
2021/10/26 05:13:49;;;;;;;24.88;11.73;;;;;;;-142.75;100.00;77688.53;4992512;28;20349;-67
2021/10/26 05:16:14;;;;;;;25.98;10.18;;;;;;;-142.75;100.00;77688.53;4993774;28;20026;-67
2021/10/26 05:18:42;;;;;;;22.00;10.70;;;;;;;-142.75;100.00;77688.53;4993686;28;20022;-67
2021/10/26 05:21:12;;;;;;;27.90;11.13;;;;;;;-142.75;100.00;77692.47;4993548;28;20464;-67
2021/10/26 05:23:40;;;;;;;29.75;11.93;;;;;;;-142.75;100.00;77680.66;4993599;28;20018;-66
2021/10/26 05:26:05;;;;;;;21.40;11.82;;;;;;;-142.75;100.00;77698.38;4993384;28;20605;-66
2021/10/26 05:28:30;;;;;;;24.08;11.48;;;;;;;-142.75;100.00;77696.41;4993686;28;20033;-67
2021/10/26 05:30:56;;;;;;;24.85;11.98;;;;;;;-142.75;100.00;77712.16;4993224;28;20033;-66
2021/10/26 05:33:21;;;;;;;25.10;11.90;;;;;;;-142.75;100.00;77714.13;4993496;28;20026;-66
2021/10/26 05:35:47;;;;;;;23.73;11.73;;;;;;;-142.75;100.00;77716.09;4993055;28;20066;-67
2021/10/26 05:38:12;;;;;;;23.77;11.70;;;;;;;-142.75;100.00;77706.25;4992117;28;20379;-67
2021/10/26 05:40:37;;;;;;;21.60;12.00;;;;;;;-142.75;100.00;77720.03;4993341;28;20064;-67
2021/10/26 05:43:03;;;;;;;29.88;12.05;;;;;;;-142.75;100.00;77723.97;4993247;28;20022;-67
2021/10/26 05:45:28;;;;;;;26.70;11.40;;;;;;;-142.75;100.00;77722.00;4993001;28;20496;-67
2021/10/26 05:47:53;;;;;;;23.73;12.68;;;;;;;-142.75;100.00;77735.81;4993017;28;20026;-67
2021/10/26 05:50:19;;;;;;;28.48;12.02;;;;;;;-142.75;100.00;77741.72;4991790;28;20014;-66
2021/10/26 05:52:44;;;;;;;22.58;11.65;;;;;;;-142.75;100.00;77731.88;4993034;28;20030;-67
2021/10/26 05:55:09;;;;;;;21.73;11.35;;;;;;;-142.75;100.00;77743.69;4992784;28;20069;-67
2021/10/26 05:57:35;;;;;;;25.55;11.65;;;;;;;-142.75;100.00;77751.56;4992821;28;20026;-67
2021/10/26 06:00:00;;;;;;;27.25;11.50;;;;;;;-142.75;100.00;77755.50;4992792;28;20018;-67
2021/10/26 06:02:25;;;;;;;25.75;12.25;;;;;;;-142.75;100.00;77751.56;4992752;28;20529;-67
2021/10/26 06:04:51;;;;;;;22.77;11.65;;;;;;;-142.75;100.00;77763.38;4992485;28;20014;-66
2021/10/26 06:07:17;;;;;;;;;;;;;;;-142.75;100.00;77749.59;4991957;28;20022;-66
2021/10/26 06:09:42;;;;;;;28.80;11.88;;;;;;;-142.75;100.00;77747.63;4992662;28;20016;-67
2021/10/26 06:12:11;;;;;;;23.80;12.20;;;;;;;-142.75;100.00;77751.56;4992686;28;20022;-67
2021/10/26 06:14:36;;;;;;;27.17;13.15;;;;;;;-142.75;100.00;77751.56;5007329;28;20109;-67
2021/10/26 06:17:02;;;;;;;22.45;12.20;;;;;;;-142.75;100.00;77755.50;4992553;28;20149;-66
2021/10/26 06:19:27;;;;;;;30.27;12.48;;;;;;;-142.75;100.00;77755.50;4992427;28;20014;-66
2021/10/26 06:21:53;;;;;;;24.83;12.98;;;;;;;-142.75;100.00;77775.19;4992491;28;20021;-67
2021/10/26 06:24:18;;;;;;;24.70;11.90;;;;;;;-142.75;100.00;77773.22;4992174;28;20483;-67
2021/10/26 06:26:43;;;;;;;24.73;12.30;;;;;;;-142.75;100.00;77775.19;4992497;28;20054;-66
2021/10/26 06:29:09;;;;;;;21.63;12.73;;;;;;;-142.75;100.00;77767.31;4992377;28;20030;-67
2021/10/26 06:31:34;;;;;;;26.45;14.25;;;;;;;-142.75;100.00;77773.22;4991933;28;20014;-66
2021/10/26 06:33:59;;;;;;;25.42;13.23;;;;;;;-142.75;100.00;77783.06;4992117;28;20018;-67
2021/10/26 06:36:25;;;;;;;23.90;13.02;;;;;;;-142.75;100.00;77763.38;4992205;28;20129;-67
2021/10/26 06:38:51;;;;;;;21.50;12.57;;;;;;;-142.75;100.00;77765.34;4992279;28;20021;-67
2021/10/26 06:41:17;;;;;;;29.63;14.23;;;;;;;-142.75;100.00;77777.16;4992015;28;20029;-67
2021/10/26 06:43:42;;;;;;;29.23;14.20;;;;;;;-142.75;100.00;77771.25;4992108;28;20018;-67
2021/10/26 06:46:08;;;;;;;25.27;14.00;;;;;;;-142.75;100.00;77767.31;4991691;28;20041;-67
2021/10/26 06:48:33;;;;;;;29.52;13.77;;;;;;;-142.75;100.00;77773.22;4991933;28;20089;-67
2021/10/26 06:50:58;;;;;;;29.73;13.95;;;;;;;-142.75;100.00;77763.38;4990700;28;20054;-67
2021/10/26 06:53:25;;;;;;;21.67;13.23;;;;;;;-142.75;100.00;77765.34;4991915;28;20018;-67
2021/10/26 06:55:51;;;;;;;;;;;;;;;-142.75;100.00;77757.47;4992105;28;20487;-67
2021/10/26 06:58:16;;;;;;;28.05;14.63;;;;;;;-142.75;100.00;77751.56;4991496;28;19909;-67
2021/10/26 07:00:43;;;;;;;26.67;13.55;;;;;;;-142.75;100.00;77757.47;4991795;28;20033;-67
2021/10/26 07:03:09;;;;;;;29.02;14.10;;;;;;;-142.75;100.00;77747.63;4991713;28;20105;-67
2021/10/26 07:05:36;;;;;;;29.65;13.88;;;;;;;-142.75;100.00;77727.94;4991475;28;20030;-67
2021/10/26 07:08:01;;;;;;;27.48;14.25;;;;;;;-142.75;100.00;77706.25;4991568;28;20018;-66
2021/10/26 07:10:26;;;;;;;24.60;13.35;;;;;;;-142.75;100.00;77680.66;4991570;28;20109;-67
2021/10/26 07:12:54;;;;;;;27.75;13.63;;;;;;;-142.75;100.00;77653.09;4991468;28;20114;-67
2021/10/26 07:15:20;;;;;;;22.65;12.27;;;;;;;-142.75;100.00;77631.44;4991263;28;20072;-67
2021/10/26 07:17:45;;;;;;;28.02;13.40;;;;;;;-142.75;100.00;77627.50;4991569;28;20381;-67
2021/10/26 07:20:13;;;;;;;22.83;12.30;;;;;;;-142.75;100.00;77621.59;4991627;28;20318;-67
2021/10/26 07:22:39;;;;;;;24.85;11.98;;;;;;;-142.75;100.00;77621.59;4991399;28;20022;-67
2021/10/26 07:25:08;;;;;;;27.20;12.57;;;;;;;-142.75;100.00;77609.78;4991094;28;20403;-67
2021/10/26 07:27:39;;;;;;;23.33;12.00;;;;;;;-142.75;100.00;77609.78;4991354;28;20040;-67
2021/10/26 07:30:06;;;;;;;21.55;10.80;;;;;;;-142.75;100.00;77592.06;4991348;28;20019;-67
2021/10/26 07:32:32;;;;;;;19.50;11.73;;;;;;;-142.75;100.00;77566.47;4990645;28;20113;-67
2021/10/26 07:34:58;;;;;;;20.25;11.43;;;;;;;-142.75;100.00;77564.50;4991224;28;20138;-66
2021/10/26 07:37:33;;;;;;;19.38;11.07;;;;;;;-142.75;100.00;77558.59;4991310;28;20033;-68
2021/10/26 07:39:59;;;;;;;23.30;10.52;;;;;;;-142.75;100.00;77538.91;4991328;28;20032;-68
2021/10/26 07:42:24;;;;;;;20.02;10.55;;;;;;;-142.75;100.00;77527.09;4991262;28;20022;-67
2021/10/26 07:44:51;;;;;;;21.58;10.90;;;;;;;-142.75;100.00;77546.78;4989756;28;20116;-68
2021/10/26 07:47:19;;;;;;;22.25;10.27;;;;;;;-142.75;100.00;77568.44;4991188;28;20030;-68
2021/10/26 07:49:46;;;;;;;20.15;10.30;;;;;;;-142.75;100.00;77594.03;4989993;28;20073;-67
2021/10/26 07:52:12;;;;;;;16.63;10.13;;;;;;;-142.75;100.00;77605.84;4989012;28;20057;-68
2021/10/26 07:54:38;;;;;;;20.02;11.23;;;;;;;-142.75;100.00;77613.72;4989779;28;20392;-68
2021/10/26 07:57:04;;;;;;;22.17;10.52;;;;;;;-142.75;100.00;77647.19;4990317;28;20030;-67
2021/10/26 07:59:29;;;;;;;16.73;10.40;;;;;;;-142.75;100.00;77651.13;4990309;28;20694;-67
2021/10/26 08:01:55;;;;;;;24.60;11.82;;;;;;;-142.75;100.00;77657.03;4990158;28;20413;-68
2021/10/26 08:04:20;;;;;;;19.85;11.40;;;;;;;-142.75;100.00;77647.19;4989923;28;20125;-68
2021/10/26 08:06:46;;;;;;;24.88;11.82;;;;;;;-142.75;100.00;77645.22;4990238;28;20018;-67
2021/10/26 08:09:12;;;;;;;22.38;12.23;;;;;;;-142.75;100.00;77660.97;4989942;28;20058;-67
2021/10/26 08:11:38;;;;;;;27.65;12.25;;;;;;;-142.75;100.00;77682.63;4990011;28;20026;-68
2021/10/26 08:14:04;;;;;;;24.85;13.00;;;;;;;-142.75;100.00;77672.78;4988590;28;20022;-67
2021/10/26 08:16:29;;;;;;;22.98;12.95;;;;;;;-142.75;100.00;77657.03;5005026;28;20049;-68
2021/10/26 08:18:54;;;;;;;26.92;13.77;;;;;;;-142.75;100.00;77668.84;4990152;28;20648;-67
2021/10/26 08:21:20;;;;;;;27.60;12.87;;;;;;;-142.75;100.00;77657.03;4989913;28;20026;-68
2021/10/26 08:23:46;;;;;;;25.42;13.60;;;;;;;-142.75;100.00;77649.16;4989789;28;20273;-68
2021/10/26 08:26:17;;;;;;;;;;;;;;;-142.75;100.00;77653.09;4990434;28;20030;-67
2021/10/26 08:28:43;;;;;;;23.88;12.13;;;;;;;-142.75;100.00;77631.44;4989776;28;19941;-67
2021/10/26 08:31:18;;;;;;;27.52;12.98;;;;;;;-142.75;100.00;77627.50;4989464;28;20488;-66
2021/10/26 08:36:18;;;;;;;23.75;12.07;;;;;;;-142.75;100.00;77643.25;4989605;28;20041;-68
2021/10/26 08:38:43;;;;;;;31.48;14.35;;;;;;;-142.75;100.00;77651.13;5004995;28;20030;-69
2021/10/26 08:41:10;;;;;;;28.70;14.80;;;;;;;-142.75;100.00;77641.28;4988024;28;20061;-68
2021/10/26 08:43:36;;;;;;;28.63;16.13;;;;;;;-142.75;100.00;77637.34;4987666;28;20030;-67
2021/10/26 08:46:08;;;;;;;31.08;16.63;;;;;;;-142.75;100.00;77660.97;4992076;28;20023;-67
2021/10/26 08:48:40;;;;;;;26.23;15.40;;;;;;;-142.75;100.00;77631.44;4991422;28;20038;-67
2021/10/26 08:51:05;;;;;;;28.70;16.98;;;;;;;-142.75;100.00;77635.38;5011404;28;20033;-67
2021/10/26 08:53:32;;;;;;;33.15;17.63;;;;;;;-142.75;100.00;77633.41;5011536;28;20108;-67
2021/10/26 08:55:59;;;;;;;29.33;17.17;;;;;;;-142.75;100.00;77645.22;5011009;28;20025;-67
2021/10/26 08:58:26;;;;;;;35.88;19.33;;;;;;;-142.75;100.00;77629.47;5011479;28;20096;-68
2021/10/26 09:00:52;;;;;;;34.30;19.77;;;;;;;-142.75;100.00;77641.28;5011991;28;20025;-67
2021/10/26 09:03:19;;;;;;;34.22;18.50;;;;;;;-142.75;100.00;77631.44;5009189;28;20053;-67
2021/10/26 09:05:46;;;;;;;30.58;18.67;;;;;;;-142.75;100.00;77635.38;5010085;28;20479;-67
2021/10/26 09:08:12;;;;;;;34.35;20.00;;;;;;;-142.75;100.00;77619.63;5011834;28;20075;-67
2021/10/26 09:10:39;;;;;;;32.80;19.98;;;;;;;-142.75;100.00;77609.78;5012028;28;20112;-67
2021/10/26 09:18:26;;;;;;;32.13;17.05;;;;;;;-142.75;100.00;77609.78;5028092;28;20040;-69
2021/10/26 09:20:53;;;;;;;35.10;17.88;;;;;;;-142.75;100.00;77594.03;5032883;28;20497;-69
2021/10/26 09:23:19;;;;;;;27.00;16.70;;;;;;;-142.75;100.00;77592.06;5032892;28;20033;-69
2021/10/26 09:25:54;;;;;;;29.02;16.75;;;;;;;-142.75;100.00;77596.00;5032910;28;20128;-70
2021/10/26 09:28:20;;;;;;;24.80;16.23;;;;;;;-142.75;100.00;77582.22;5033014;28;20025;-69
2021/10/26 09:31:00;;;;;;;27.23;15.32;;;;;;;-142.75;100.00;77578.28;5032709;28;20071;-69
2021/10/26 09:33:36;;;;;;;24.02;14.90;;;;;;;-142.75;100.00;77582.22;5032810;28;20042;-70
2021/10/26 09:36:34;;;;;;;25.83;14.67;;;;;;;-142.75;100.00;77582.22;5032445;28;20057;-69
2021/10/26 09:39:10;;;;;;;24.63;14.57;;;;;;;-142.75;100.00;77582.22;5014938;28;20029;-70
2021/10/26 09:41:51;;;;;;;27.20;14.10;;;;;;;-142.75;100.00;77570.41;5032818;28;20394;-70
2021/10/26 09:44:18;;;;;;;22.00;13.13;;;;;;;-142.75;100.00;77586.16;5032506;28;20026;-70
2021/10/26 09:46:53;;;;;;;25.48;12.63;;;;;;;-142.75;100.00;77590.09;5032036;28;20029;-69
2021/10/26 09:49:36;;;;;;;19.90;12.95;;;;;;;-142.75;100.00;77576.31;5014786;28;20079;-69
2021/10/26 09:52:18;;;;;;;25.10;12.75;;;;;;;-142.75;100.00;77566.47;5032541;28;20034;-70
2021/10/26 09:54:47;;;;;;;21.23;11.82;;;;;;;-142.75;100.00;77568.44;5031743;28;20075;-70
2021/10/26 09:57:16;;;;;;;24.73;13.05;;;;;;;-142.75;100.00;77566.47;5032460;28;20025;-70
2021/10/26 09:59:54;;;;;;;22.42;12.57;;;;;;;-142.75;100.00;77564.50;5032329;28;20026;-71
2021/10/26 10:02:22;;;;;;;26.48;12.55;;;;;;;-142.75;100.00;77560.56;5032484;28;20029;-71
2021/10/26 10:04:49;;;;;;;22.00;13.10;;;;;;;-142.75;100.00;77558.59;5031946;28;20057;-71
2021/10/26 10:07:26;;;;;;;24.17;12.80;;;;;;;-142.75;100.00;77562.53;5032241;28;20530;-70
2021/10/26 10:09:56;;;;;;;23.80;13.85;;;;;;;-142.75;100.00;77546.78;5014626;28;20029;-70
2021/10/26 10:12:23;;;;;;;23.98;14.18;;;;;;;-142.75;100.00;77533.00;5032263;28;20033;-70
2021/10/26 10:14:53;;;;;;;23.30;13.75;;;;;;;-142.75;100.00;77550.72;5031616;28;20036;-70
2021/10/26 10:17:21;;;;;;;24.80;14.00;;;;;;;-142.75;100.00;77558.59;5014440;28;20037;-70
2021/10/26 10:19:49;;;;;;;30.05;14.05;;;;;;;-142.75;100.00;77558.59;5032128;28;20433;-70
2021/10/26 10:22:15;;;;;;;30.15;14.50;;;;;;;-142.75;100.00;77533.00;5031903;28;20029;-70
2021/10/26 10:24:42;;;;;;;29.80;14.65;;;;;;;-142.75;100.00;77523.16;5031661;28;20103;-70
2021/10/26 10:27:08;;;;;;;27.42;14.40;;;;;;;-142.75;100.00;77503.47;5032159;28;20022;-70
2021/10/26 10:29:38;;;;;;;24.85;13.63;;;;;;;-142.75;100.00;77507.41;5031665;28;20447;-70
2021/10/26 10:32:05;;;;;;;27.27;13.80;;;;;;;-142.75;100.00;77505.44;5031568;28;20033;-70
2021/10/26 10:34:32;;;;;;;24.23;13.77;;;;;;;-142.75;100.00;77503.47;5031533;28;20037;-70
2021/10/26 10:36:59;;;;;;;25.15;14.50;;;;;;;-142.75;100.00;77495.59;5031573;28;20039;-71
2021/10/26 10:39:32;;;;;;;26.70;14.35;;;;;;;-142.75;100.00;77462.13;5031554;28;20025;-70
2021/10/26 10:42:20;;;;;;;23.25;13.52;;;;;;;-142.75;100.00;77393.19;5014289;28;20026;-70
2021/10/26 10:44:45;;;;;;;;;;;;;;;-142.75;100.00;77328.22;5013844;28;20060;-70
2021/10/26 10:47:40;;;;;;;21.13;10.93;;;;;;;-142.75;100.00;77263.25;5031484;28;20375;-70
2021/10/26 10:50:21;;;;;;;25.25;10.23;;;;;;;-142.75;100.00;77249.47;5031420;28;20018;-71
2021/10/26 10:53:03;;;;;;;18.38;9.45;;;;;;;-142.75;100.00;77286.88;5031357;28;20068;-70
2021/10/26 10:55:29;;;;;;;19.00;8.10;;;;;;;-142.75;100.00;77294.75;5030806;28;20029;-70
2021/10/26 10:57:54;;;;;;;21.60;8.50;;;;;;;-142.75;100.00;77288.84;5031333;28;20060;-70
2021/10/26 11:00:25;;;;;;;;;;;;;;;-142.75;100.00;77330.19;5014026;28;20030;-70
2021/10/26 11:02:51;;;;;;;20.65;7.78;;;;;;;-142.75;100.00;77349.88;5031372;28;19916;-70
2021/10/26 11:05:38;;;;;;;20.67;8.45;;;;;;;-142.75;100.00;77349.88;5031015;28;20018;-72